sensor_id;sensor_type;location;lat;lon;timestamp;P1;durP1;ratioP1;P2;durP2;ratioP2
6671;SDS011;3372;48.690;12.362;2023-05-19T00:00:15;7.63;;;5.27;;
6671;SDS011;3372;48.690;12.362;2023-05-19T00:02:42;8.43;;;4.50;;
6671;SDS011;3372;48.690;12.362;2023-05-19T00:05:09;9.97;;;5.67;;
6671;SDS011;3372;48.690;12.362;2023-05-19T00:07:36;7.73;;;5.70;;
6671;SDS011;3372;48.690;12.362;2023-05-19T00:10:03;7.53;;;5.40;;
6671;SDS011;3372;48.690;12.362;2023-05-19T00:12:29;9.03;;;6.23;;
6671;SDS011;3372;48.690;12.362;2023-05-19T00:14:55;11.67;;;5.67;;
6671;SDS011;3372;48.690;12.362;2023-05-19T00:17:21;9.37;;;6.13;;
6671;SDS011;3372;48.690;12.362;2023-05-19T00:19:47;9.40;;;6.10;;
6671;SDS011;3372;48.690;12.362;2023-05-19T00:22:13;8.87;;;6.17;;
6671;SDS011;3372;48.690;12.362;2023-05-19T00:24:38;8.83;;;6.33;;
6671;SDS011;3372;48.690;12.362;2023-05-19T00:27:04;9.03;;;6.13;;
6671;SDS011;3372;48.690;12.362;2023-05-19T00:29:30;8.80;;;5.73;;
6671;SDS011;3372;48.690;12.362;2023-05-19T00:31:55;8.90;;;6.20;;
6671;SDS011;3372;48.690;12.362;2023-05-19T00:34:21;10.43;;;5.87;;
6671;SDS011;3372;48.690;12.362;2023-05-19T00:36:46;7.73;;;5.60;;
6671;SDS011;3372;48.690;12.362;2023-05-19T00:39:12;7.40;;;5.10;;
6671;SDS011;3372;48.690;12.362;2023-05-19T00:41:37;7.37;;;4.83;;
6671;SDS011;3372;48.690;12.362;2023-05-19T00:44:03;9.67;;;5.67;;
6671;SDS011;3372;48.690;12.362;2023-05-19T00:46:30;7.30;;;5.37;;
6671;SDS011;3372;48.690;12.362;2023-05-19T00:48:56;9.70;;;5.63;;
6671;SDS011;3372;48.690;12.362;2023-05-19T00:51:22;7.60;;;5.23;;
6671;SDS011;3372;48.690;12.362;2023-05-19T00:53:49;7.07;;;5.60;;
6671;SDS011;3372;48.690;12.362;2023-05-19T00:56:16;7.63;;;4.77;;
6671;SDS011;3372;48.690;12.362;2023-05-19T00:58:43;8.67;;;5.20;;
6671;SDS011;3372;48.690;12.362;2023-05-19T01:01:09;6.90;;;5.73;;
6671;SDS011;3372;48.690;12.362;2023-05-19T01:03:36;7.37;;;5.33;;
6671;SDS011;3372;48.690;12.362;2023-05-19T01:06:02;6.90;;;4.97;;
6671;SDS011;3372;48.690;12.362;2023-05-19T01:08:34;8.33;;;5.63;;
6671;SDS011;3372;48.690;12.362;2023-05-19T01:11:01;9.70;;;5.87;;
6671;SDS011;3372;48.690;12.362;2023-05-19T01:13:27;9.77;;;5.73;;
6671;SDS011;3372;48.690;12.362;2023-05-19T01:18:35;10.30;;;5.90;;
6671;SDS011;3372;48.690;12.362;2023-05-19T01:32:47;9.60;;;6.67;;
6671;SDS011;3372;48.690;12.362;2023-05-19T01:35:16;8.97;;;6.30;;
6671;SDS011;3372;48.690;12.362;2023-05-19T01:37:42;8.73;;;5.70;;
6671;SDS011;3372;48.690;12.362;2023-05-19T01:40:09;8.40;;;5.87;;
6671;SDS011;3372;48.690;12.362;2023-05-19T01:42:36;8.27;;;6.10;;
6671;SDS011;3372;48.690;12.362;2023-05-19T01:45:04;10.23;;;6.57;;
6671;SDS011;3372;48.690;12.362;2023-05-19T01:47:35;8.70;;;6.20;;
6671;SDS011;3372;48.690;12.362;2023-05-19T01:50:04;10.10;;;5.93;;
6671;SDS011;3372;48.690;12.362;2023-05-19T01:52:30;11.53;;;6.87;;
6671;SDS011;3372;48.690;12.362;2023-05-19T01:54:56;9.07;;;6.43;;
6671;SDS011;3372;48.690;12.362;2023-05-19T02:02:59;8.20;;;6.30;;
6671;SDS011;3372;48.690;12.362;2023-05-19T02:08:26;8.77;;;6.17;;
6671;SDS011;3372;48.690;12.362;2023-05-19T02:11:02;8.43;;;6.60;;
6671;SDS011;3372;48.690;12.362;2023-05-19T02:13:34;11.37;;;6.50;;
6671;SDS011;3372;48.690;12.362;2023-05-19T02:16:04;8.70;;;6.47;;
6671;SDS011;3372;48.690;12.362;2023-05-19T02:18:33;9.30;;;6.00;;
6671;SDS011;3372;48.690;12.362;2023-05-19T02:20:59;8.20;;;6.23;;
6671;SDS011;3372;48.690;12.362;2023-05-19T02:23:25;10.70;;;6.50;;
6671;SDS011;3372;48.690;12.362;2023-05-19T02:25:51;7.93;;;6.60;;
6671;SDS011;3372;48.690;12.362;2023-05-19T02:28:17;8.60;;;6.20;;
6671;SDS011;3372;48.690;12.362;2023-05-19T02:30:42;13.33;;;6.40;;
6671;SDS011;3372;48.690;12.362;2023-05-19T02:33:08;9.63;;;6.17;;
6671;SDS011;3372;48.690;12.362;2023-05-19T02:35:35;10.43;;;6.93;;
6671;SDS011;3372;48.690;12.362;2023-05-19T02:38:01;11.90;;;6.67;;
6671;SDS011;3372;48.690;12.362;2023-05-19T02:40:26;11.27;;;6.50;;
6671;SDS011;3372;48.690;12.362;2023-05-19T02:42:52;8.50;;;6.50;;
6671;SDS011;3372;48.690;12.362;2023-05-19T02:45:17;9.47;;;5.90;;
6671;SDS011;3372;48.690;12.362;2023-05-19T02:47:43;7.87;;;5.83;;
6671;SDS011;3372;48.690;12.362;2023-05-19T02:50:08;11.90;;;6.57;;
6671;SDS011;3372;48.690;12.362;2023-05-19T02:52:34;10.53;;;6.10;;
6671;SDS011;3372;48.690;12.362;2023-05-19T02:55:00;9.60;;;6.10;;
6671;SDS011;3372;48.690;12.362;2023-05-19T02:57:27;9.63;;;5.97;;
6671;SDS011;3372;48.690;12.362;2023-05-19T02:59:53;8.47;;;6.10;;
6671;SDS011;3372;48.690;12.362;2023-05-19T03:02:19;8.70;;;5.73;;
6671;SDS011;3372;48.690;12.362;2023-05-19T03:04:45;10.07;;;5.70;;
6671;SDS011;3372;48.690;12.362;2023-05-19T03:07:10;12.53;;;6.13;;
6671;SDS011;3372;48.690;12.362;2023-05-19T03:09:37;8.73;;;6.20;;
6671;SDS011;3372;48.690;12.362;2023-05-19T03:12:03;8.73;;;6.00;;
6671;SDS011;3372;48.690;12.362;2023-05-19T03:14:31;8.40;;;5.83;;
6671;SDS011;3372;48.690;12.362;2023-05-19T03:17:01;7.50;;;5.00;;
6671;SDS011;3372;48.690;12.362;2023-05-19T03:19:27;8.87;;;5.67;;
6671;SDS011;3372;48.690;12.362;2023-05-19T03:21:53;7.63;;;5.40;;
6671;SDS011;3372;48.690;12.362;2023-05-19T03:24:20;8.10;;;4.83;;
6671;SDS011;3372;48.690;12.362;2023-05-19T03:26:45;8.50;;;5.13;;
6671;SDS011;3372;48.690;12.362;2023-05-19T03:29:11;9.23;;;5.57;;
6671;SDS011;3372;48.690;12.362;2023-05-19T03:31:37;8.70;;;5.10;;
6671;SDS011;3372;48.690;12.362;2023-05-19T03:34:02;12.37;;;4.60;;
6671;SDS011;3372;48.690;12.362;2023-05-19T03:36:28;9.47;;;5.13;;
6671;SDS011;3372;48.690;12.362;2023-05-19T03:38:59;9.03;;;4.90;;
6671;SDS011;3372;48.690;12.362;2023-05-19T03:41:24;8.70;;;5.50;;
6671;SDS011;3372;48.690;12.362;2023-05-19T03:43:50;9.43;;;4.90;;
6671;SDS011;3372;48.690;12.362;2023-05-19T03:46:16;9.40;;;5.10;;
6671;SDS011;3372;48.690;12.362;2023-05-19T03:48:41;7.77;;;5.20;;
6671;SDS011;3372;48.690;12.362;2023-05-19T03:51:07;13.50;;;5.60;;
6671;SDS011;3372;48.690;12.362;2023-05-19T03:53:33;8.03;;;5.07;;
6671;SDS011;3372;48.690;12.362;2023-05-19T03:55:59;8.07;;;5.70;;
6671;SDS011;3372;48.690;12.362;2023-05-19T03:58:25;9.17;;;5.70;;
6671;SDS011;3372;48.690;12.362;2023-05-19T04:00:50;9.40;;;5.50;;
6671;SDS011;3372;48.690;12.362;2023-05-19T04:03:16;10.40;;;5.77;;
6671;SDS011;3372;48.690;12.362;2023-05-19T04:05:41;11.30;;;5.40;;
6671;SDS011;3372;48.690;12.362;2023-05-19T04:08:07;8.90;;;5.53;;
6671;SDS011;3372;48.690;12.362;2023-05-19T04:10:33;6.97;;;4.80;;
6671;SDS011;3372;48.690;12.362;2023-05-19T04:12:58;8.30;;;5.20;;
6671;SDS011;3372;48.690;12.362;2023-05-19T04:15:24;10.03;;;6.27;;
6671;SDS011;3372;48.690;12.362;2023-05-19T04:17:50;8.57;;;5.77;;
6671;SDS011;3372;48.690;12.362;2023-05-19T04:20:15;9.30;;;5.37;;
6671;SDS011;3372;48.690;12.362;2023-05-19T04:22:41;10.13;;;5.10;;
6671;SDS011;3372;48.690;12.362;2023-05-19T04:25:06;7.60;;;5.67;;
6671;SDS011;3372;48.690;12.362;2023-05-19T04:27:32;9.63;;;6.17;;
6671;SDS011;3372;48.690;12.362;2023-05-19T04:30:02;11.40;;;6.27;;
6671;SDS011;3372;48.690;12.362;2023-05-19T04:32:32;9.03;;;5.97;;
6671;SDS011;3372;48.690;12.362;2023-05-19T04:34:57;8.83;;;6.07;;
6671;SDS011;3372;48.690;12.362;2023-05-19T04:37:23;7.70;;;5.43;;
6671;SDS011;3372;48.690;12.362;2023-05-19T04:39:50;16.53;;;6.63;;
6671;SDS011;3372;48.690;12.362;2023-05-19T04:42:16;11.20;;;5.50;;
6671;SDS011;3372;48.690;12.362;2023-05-19T04:44:43;10.33;;;5.80;;
6671;SDS011;3372;48.690;12.362;2023-05-19T04:47:13;13.47;;;6.13;;
6671;SDS011;3372;48.690;12.362;2023-05-19T04:49:39;8.13;;;5.77;;
6671;SDS011;3372;48.690;12.362;2023-05-19T04:52:08;6.70;;;5.47;;
6671;SDS011;3372;48.690;12.362;2023-05-19T04:54:36;9.90;;;5.80;;
6671;SDS011;3372;48.690;12.362;2023-05-19T04:57:02;9.20;;;5.60;;
6671;SDS011;3372;48.690;12.362;2023-05-19T04:59:28;8.37;;;5.07;;
6671;SDS011;3372;48.690;12.362;2023-05-19T05:01:54;11.33;;;5.60;;
6671;SDS011;3372;48.690;12.362;2023-05-19T05:04:20;8.90;;;5.53;;
6671;SDS011;3372;48.690;12.362;2023-05-19T05:06:45;10.17;;;6.70;;
6671;SDS011;3372;48.690;12.362;2023-05-19T05:09:13;10.00;;;6.67;;
6671;SDS011;3372;48.690;12.362;2023-05-19T05:11:39;7.40;;;5.73;;
6671;SDS011;3372;48.690;12.362;2023-05-19T05:14:05;10.43;;;6.10;;
6671;SDS011;3372;48.690;12.362;2023-05-19T05:16:31;10.30;;;6.57;;
6671;SDS011;3372;48.690;12.362;2023-05-19T05:18:58;10.50;;;6.80;;
6671;SDS011;3372;48.690;12.362;2023-05-19T05:21:24;11.07;;;6.00;;
6671;SDS011;3372;48.690;12.362;2023-05-19T05:23:52;9.60;;;6.00;;
6671;SDS011;3372;48.690;12.362;2023-05-19T05:26:18;9.10;;;5.80;;
6671;SDS011;3372;48.690;12.362;2023-05-19T05:28:47;9.93;;;6.17;;
6671;SDS011;3372;48.690;12.362;2023-05-19T05:31:13;10.73;;;6.60;;
6671;SDS011;3372;48.690;12.362;2023-05-19T05:33:38;8.13;;;6.30;;
6671;SDS011;3372;48.690;12.362;2023-05-19T05:36:04;10.90;;;6.17;;
6671;SDS011;3372;48.690;12.362;2023-05-19T05:38:30;12.60;;;7.40;;
6671;SDS011;3372;48.690;12.362;2023-05-19T05:40:56;10.00;;;6.63;;
6671;SDS011;3372;48.690;12.362;2023-05-19T05:43:22;10.33;;;6.67;;
6671;SDS011;3372;48.690;12.362;2023-05-19T05:45:47;8.57;;;6.00;;
6671;SDS011;3372;48.690;12.362;2023-05-19T05:48:13;16.17;;;6.87;;
6671;SDS011;3372;48.690;12.362;2023-05-19T05:50:38;11.70;;;7.03;;
6671;SDS011;3372;48.690;12.362;2023-05-19T05:53:06;10.80;;;6.30;;
6671;SDS011;3372;48.690;12.362;2023-05-19T05:55:36;12.43;;;6.87;;
6671;SDS011;3372;48.690;12.362;2023-05-19T05:58:02;10.73;;;6.40;;
6671;SDS011;3372;48.690;12.362;2023-05-19T06:00:27;10.73;;;5.97;;
6671;SDS011;3372;48.690;12.362;2023-05-19T06:02:53;10.83;;;5.97;;
6671;SDS011;3372;48.690;12.362;2023-05-19T06:05:19;9.73;;;6.00;;
6671;SDS011;3372;48.690;12.362;2023-05-19T06:07:45;11.30;;;5.70;;
6671;SDS011;3372;48.690;12.362;2023-05-19T06:10:10;9.30;;;6.33;;
6671;SDS011;3372;48.690;12.362;2023-05-19T06:12:36;9.70;;;6.60;;
6671;SDS011;3372;48.690;12.362;2023-05-19T06:15:06;12.27;;;5.97;;
6671;SDS011;3372;48.690;12.362;2023-05-19T06:17:32;11.40;;;6.50;;
6671;SDS011;3372;48.690;12.362;2023-05-19T06:19:59;11.53;;;5.93;;
6671;SDS011;3372;48.690;12.362;2023-05-19T06:22:26;10.10;;;6.30;;
6671;SDS011;3372;48.690;12.362;2023-05-19T06:24:52;10.60;;;5.37;;
6671;SDS011;3372;48.690;12.362;2023-05-19T06:27:18;8.80;;;6.00;;
6671;SDS011;3372;48.690;12.362;2023-05-19T06:29:43;9.07;;;5.57;;
6671;SDS011;3372;48.690;12.362;2023-05-19T06:32:09;9.23;;;5.70;;
6671;SDS011;3372;48.690;12.362;2023-05-19T06:34:35;7.53;;;6.10;;
6671;SDS011;3372;48.690;12.362;2023-05-19T06:37:02;7.80;;;6.10;;
6671;SDS011;3372;48.690;12.362;2023-05-19T06:39:28;9.67;;;6.27;;
6671;SDS011;3372;48.690;12.362;2023-05-19T06:41:53;9.00;;;6.20;;
6671;SDS011;3372;48.690;12.362;2023-05-19T06:44:19;7.90;;;5.90;;
6671;SDS011;3372;48.690;12.362;2023-05-19T06:46:44;11.27;;;6.37;;
6671;SDS011;3372;48.690;12.362;2023-05-19T06:49:10;11.30;;;6.23;;
6671;SDS011;3372;48.690;12.362;2023-05-19T06:51:35;8.80;;;6.40;;
6671;SDS011;3372;48.690;12.362;2023-05-19T06:54:01;9.40;;;6.60;;
6671;SDS011;3372;48.690;12.362;2023-05-19T06:56:27;10.30;;;6.30;;
6671;SDS011;3372;48.690;12.362;2023-05-19T06:58:52;10.47;;;6.10;;
6671;SDS011;3372;48.690;12.362;2023-05-19T07:01:18;6.77;;;6.00;;
6671;SDS011;3372;48.690;12.362;2023-05-19T07:03:43;9.77;;;6.17;;
6671;SDS011;3372;48.690;12.362;2023-05-19T07:06:09;9.10;;;5.70;;
6671;SDS011;3372;48.690;12.362;2023-05-19T07:08:35;9.30;;;6.27;;
6671;SDS011;3372;48.690;12.362;2023-05-19T07:11:01;7.80;;;5.30;;
6671;SDS011;3372;48.690;12.362;2023-05-19T07:13:26;8.40;;;5.57;;
6671;SDS011;3372;48.690;12.362;2023-05-19T07:15:52;8.03;;;5.17;;
6671;SDS011;3372;48.690;12.362;2023-05-19T07:18:20;9.10;;;5.60;;
6671;SDS011;3372;48.690;12.362;2023-05-19T07:20:46;8.53;;;5.50;;
6671;SDS011;3372;48.690;12.362;2023-05-19T07:23:11;7.90;;;4.97;;
6671;SDS011;3372;48.690;12.362;2023-05-19T07:25:37;8.83;;;4.93;;
6671;SDS011;3372;48.690;12.362;2023-05-19T07:28:03;8.23;;;5.00;;
6671;SDS011;3372;48.690;12.362;2023-05-19T07:30:28;9.23;;;5.27;;
6671;SDS011;3372;48.690;12.362;2023-05-19T07:32:54;7.33;;;5.43;;
6671;SDS011;3372;48.690;12.362;2023-05-19T07:35:20;7.03;;;5.03;;
6671;SDS011;3372;48.690;12.362;2023-05-19T07:37:47;12.33;;;6.30;;
6671;SDS011;3372;48.690;12.362;2023-05-19T07:40:13;6.83;;;4.97;;
6671;SDS011;3372;48.690;12.362;2023-05-19T07:42:39;6.60;;;4.77;;
6671;SDS011;3372;48.690;12.362;2023-05-19T07:45:05;8.80;;;4.70;;
6671;SDS011;3372;48.690;12.362;2023-05-19T07:47:31;8.60;;;4.80;;
6671;SDS011;3372;48.690;12.362;2023-05-19T07:49:56;7.63;;;4.73;;
6671;SDS011;3372;48.690;12.362;2023-05-19T07:52:22;7.93;;;5.30;;
6671;SDS011;3372;48.690;12.362;2023-05-19T07:54:47;7.30;;;5.10;;
6671;SDS011;3372;48.690;12.362;2023-05-19T07:57:13;9.37;;;5.00;;
6671;SDS011;3372;48.690;12.362;2023-05-19T07:59:38;7.90;;;4.90;;
6671;SDS011;3372;48.690;12.362;2023-05-19T08:02:04;8.40;;;5.30;;
6671;SDS011;3372;48.690;12.362;2023-05-19T08:04:30;6.10;;;5.43;;
6671;SDS011;3372;48.690;12.362;2023-05-19T08:06:56;9.30;;;5.27;;
6671;SDS011;3372;48.690;12.362;2023-05-19T08:09:21;7.90;;;5.70;;
6671;SDS011;3372;48.690;12.362;2023-05-19T08:11:47;8.33;;;4.67;;
6671;SDS011;3372;48.690;12.362;2023-05-19T08:14:13;5.40;;;4.30;;
6671;SDS011;3372;48.690;12.362;2023-05-19T08:16:39;6.43;;;5.00;;
6671;SDS011;3372;48.690;12.362;2023-05-19T08:19:07;6.80;;;5.03;;
6671;SDS011;3372;48.690;12.362;2023-05-19T08:21:33;8.60;;;5.20;;
6671;SDS011;3372;48.690;12.362;2023-05-19T08:23:59;8.10;;;4.90;;
6671;SDS011;3372;48.690;12.362;2023-05-19T08:26:26;6.63;;;4.70;;
6671;SDS011;3372;48.690;12.362;2023-05-19T08:28:52;7.17;;;5.17;;
6671;SDS011;3372;48.690;12.362;2023-05-19T08:31:17;8.40;;;4.60;;
6671;SDS011;3372;48.690;12.362;2023-05-19T08:33:43;5.47;;;4.37;;
6671;SDS011;3372;48.690;12.362;2023-05-19T08:36:09;6.40;;;4.67;;
6671;SDS011;3372;48.690;12.362;2023-05-19T08:38:35;7.90;;;4.37;;
6671;SDS011;3372;48.690;12.362;2023-05-19T08:41:00;6.70;;;4.60;;
6671;SDS011;3372;48.690;12.362;2023-05-19T08:43:26;6.97;;;4.13;;
6671;SDS011;3372;48.690;12.362;2023-05-19T08:45:52;8.90;;;5.07;;
6671;SDS011;3372;48.690;12.362;2023-05-19T08:48:19;5.90;;;4.03;;
6671;SDS011;3372;48.690;12.362;2023-05-19T08:50:50;6.87;;;4.33;;
6671;SDS011;3372;48.690;12.362;2023-05-19T08:53:35;5.87;;;4.63;;
6671;SDS011;3372;48.690;12.362;2023-05-19T08:56:04;7.63;;;4.57;;
6671;SDS011;3372;48.690;12.362;2023-05-19T08:58:39;7.20;;;5.10;;
6671;SDS011;3372;48.690;12.362;2023-05-19T09:01:07;4.80;;;4.03;;
6671;SDS011;3372;48.690;12.362;2023-05-19T09:03:34;5.60;;;4.43;;
6671;SDS011;3372;48.690;12.362;2023-05-19T09:06:06;6.03;;;4.30;;
6671;SDS011;3372;48.690;12.362;2023-05-19T09:08:41;4.70;;;4.10;;
6671;SDS011;3372;48.690;12.362;2023-05-19T09:11:10;6.97;;;4.57;;
6671;SDS011;3372;48.690;12.362;2023-05-19T09:13:36;6.10;;;3.90;;
6671;SDS011;3372;48.690;12.362;2023-05-19T09:16:01;5.43;;;4.13;;
6671;SDS011;3372;48.690;12.362;2023-05-19T09:18:28;5.23;;;4.10;;
6671;SDS011;3372;48.690;12.362;2023-05-19T09:21:00;6.10;;;3.90;;
6671;SDS011;3372;48.690;12.362;2023-05-19T09:23:27;6.63;;;4.70;;
6671;SDS011;3372;48.690;12.362;2023-05-19T09:25:55;5.30;;;4.20;;
6671;SDS011;3372;48.690;12.362;2023-05-19T09:28:25;6.77;;;4.90;;
6671;SDS011;3372;48.690;12.362;2023-05-19T09:31:06;5.23;;;4.20;;
6671;SDS011;3372;48.690;12.362;2023-05-19T09:33:34;6.60;;;4.10;;
6671;SDS011;3372;48.690;12.362;2023-05-19T09:36:03;6.10;;;4.17;;
6671;SDS011;3372;48.690;12.362;2023-05-19T09:38:30;9.93;;;4.80;;
6671;SDS011;3372;48.690;12.362;2023-05-19T09:40:56;7.17;;;4.53;;
6671;SDS011;3372;48.690;12.362;2023-05-19T09:43:25;6.13;;;4.53;;
6671;SDS011;3372;48.690;12.362;2023-05-19T09:45:59;8.13;;;4.67;;
6671;SDS011;3372;48.690;12.362;2023-05-19T09:48:28;6.30;;;4.73;;
6671;SDS011;3372;48.690;12.362;2023-05-19T09:50:54;7.00;;;4.07;;
6671;SDS011;3372;48.690;12.362;2023-05-19T09:53:21;4.90;;;4.30;;
6671;SDS011;3372;48.690;12.362;2023-05-19T09:55:48;5.60;;;4.37;;
6671;SDS011;3372;48.690;12.362;2023-05-19T09:58:15;6.57;;;5.60;;
6671;SDS011;3372;48.690;12.362;2023-05-19T10:00:42;6.00;;;5.07;;
6671;SDS011;3372;48.690;12.362;2023-05-19T10:03:09;6.23;;;4.43;;
6671;SDS011;3372;48.690;12.362;2023-05-19T10:05:35;7.07;;;4.70;;
6671;SDS011;3372;48.690;12.362;2023-05-19T10:08:02;5.90;;;4.33;;
6671;SDS011;3372;48.690;12.362;2023-05-19T10:10:31;7.00;;;4.27;;
6671;SDS011;3372;48.690;12.362;2023-05-19T10:12:57;6.10;;;4.20;;
6671;SDS011;3372;48.690;12.362;2023-05-19T10:15:24;6.63;;;4.30;;
6671;SDS011;3372;48.690;12.362;2023-05-19T10:17:51;5.93;;;4.40;;
6671;SDS011;3372;48.690;12.362;2023-05-19T10:20:17;5.07;;;4.43;;
6671;SDS011;3372;48.690;12.362;2023-05-19T10:22:43;6.23;;;4.67;;
6671;SDS011;3372;48.690;12.362;2023-05-19T10:25:11;6.00;;;4.50;;
6671;SDS011;3372;48.690;12.362;2023-05-19T10:27:48;4.87;;;4.00;;
6671;SDS011;3372;48.690;12.362;2023-05-19T10:30:33;7.00;;;4.33;;
6671;SDS011;3372;48.690;12.362;2023-05-19T10:33:03;5.20;;;4.60;;
6671;SDS011;3372;48.690;12.362;2023-05-19T10:46:15;6.47;;;4.27;;
6671;SDS011;3372;48.690;12.362;2023-05-19T10:48:44;6.50;;;4.20;;
6671;SDS011;3372;48.690;12.362;2023-05-19T10:51:10;5.83;;;4.20;;
6671;SDS011;3372;48.690;12.362;2023-05-19T10:53:37;7.83;;;4.90;;
6671;SDS011;3372;48.690;12.362;2023-05-19T10:56:05;6.37;;;4.30;;
6671;SDS011;3372;48.690;12.362;2023-05-19T11:01:11;6.63;;;4.53;;
6671;SDS011;3372;48.690;12.362;2023-05-19T11:03:44;6.57;;;4.50;;
6671;SDS011;3372;48.690;12.362;2023-05-19T11:08:51;6.70;;;4.27;;
6671;SDS011;3372;48.690;12.362;2023-05-19T11:11:42;8.20;;;4.50;;
6671;SDS011;3372;48.690;12.362;2023-05-19T11:14:10;5.87;;;4.50;;
6671;SDS011;3372;48.690;12.362;2023-05-19T11:16:38;5.17;;;4.67;;
6671;SDS011;3372;48.690;12.362;2023-05-19T11:19:15;7.93;;;4.40;;
6671;SDS011;3372;48.690;12.362;2023-05-19T11:21:47;6.40;;;4.63;;
6671;SDS011;3372;48.690;12.362;2023-05-19T11:29:59;6.13;;;4.90;;
6671;SDS011;3372;48.690;12.362;2023-05-19T11:32:29;5.93;;;4.50;;
6671;SDS011;3372;48.690;12.362;2023-05-19T11:34:57;6.43;;;4.67;;
6671;SDS011;3372;48.690;12.362;2023-05-19T11:37:24;6.83;;;4.80;;
6671;SDS011;3372;48.690;12.362;2023-05-19T11:39:51;7.80;;;4.50;;
6671;SDS011;3372;48.690;12.362;2023-05-19T11:42:17;6.30;;;4.23;;
6671;SDS011;3372;48.690;12.362;2023-05-19T11:44:43;4.90;;;4.40;;
6671;SDS011;3372;48.690;12.362;2023-05-19T11:47:12;7.50;;;5.00;;
6671;SDS011;3372;48.690;12.362;2023-05-19T11:49:41;5.57;;;4.40;;
6671;SDS011;3372;48.690;12.362;2023-05-19T11:52:08;6.30;;;5.10;;
6671;SDS011;3372;48.690;12.362;2023-05-19T11:54:34;8.60;;;4.60;;
6671;SDS011;3372;48.690;12.362;2023-05-19T11:57:01;6.27;;;4.40;;
6671;SDS011;3372;48.690;12.362;2023-05-19T11:59:31;5.90;;;4.60;;
6671;SDS011;3372;48.690;12.362;2023-05-19T12:01:59;10.33;;;4.27;;
6671;SDS011;3372;48.690;12.362;2023-05-19T12:04:27;7.60;;;4.70;;
6671;SDS011;3372;48.690;12.362;2023-05-19T12:06:53;6.77;;;4.93;;
6671;SDS011;3372;48.690;12.362;2023-05-19T12:09:21;6.60;;;4.33;;
6671;SDS011;3372;48.690;12.362;2023-05-19T12:11:48;7.23;;;4.60;;
6671;SDS011;3372;48.690;12.362;2023-05-19T12:14:16;6.93;;;4.30;;
6671;SDS011;3372;48.690;12.362;2023-05-19T12:16:42;4.77;;;4.20;;
6671;SDS011;3372;48.690;12.362;2023-05-19T12:19:07;8.80;;;3.90;;
6671;SDS011;3372;48.690;12.362;2023-05-19T12:21:33;6.67;;;4.23;;
6671;SDS011;3372;48.690;12.362;2023-05-19T12:23:59;6.70;;;4.27;;
6671;SDS011;3372;48.690;12.362;2023-05-19T12:26:26;5.80;;;4.17;;
6671;SDS011;3372;48.690;12.362;2023-05-19T12:28:51;5.80;;;4.33;;
6671;SDS011;3372;48.690;12.362;2023-05-19T12:31:17;7.60;;;4.63;;
6671;SDS011;3372;48.690;12.362;2023-05-19T12:33:44;6.23;;;4.63;;
6671;SDS011;3372;48.690;12.362;2023-05-19T12:36:12;5.67;;;4.37;;
6671;SDS011;3372;48.690;12.362;2023-05-19T12:38:39;7.30;;;4.27;;
6671;SDS011;3372;48.690;12.362;2023-05-19T12:41:06;5.00;;;4.23;;
6671;SDS011;3372;48.690;12.362;2023-05-19T12:43:31;8.40;;;4.77;;
6671;SDS011;3372;48.690;12.362;2023-05-19T12:45:57;5.20;;;4.40;;
6671;SDS011;3372;48.690;12.362;2023-05-19T12:48:23;6.13;;;4.03;;
6671;SDS011;3372;48.690;12.362;2023-05-19T12:50:50;5.93;;;3.63;;
6671;SDS011;3372;48.690;12.362;2023-05-19T12:53:17;4.67;;;3.70;;
6671;SDS011;3372;48.690;12.362;2023-05-19T12:55:43;4.73;;;3.60;;
6671;SDS011;3372;48.690;12.362;2023-05-19T12:58:14;5.30;;;3.70;;
6671;SDS011;3372;48.690;12.362;2023-05-19T13:00:40;4.23;;;3.67;;
6671;SDS011;3372;48.690;12.362;2023-05-19T13:03:13;5.47;;;4.57;;
6671;SDS011;3372;48.690;12.362;2023-05-19T13:05:40;5.83;;;4.13;;
6671;SDS011;3372;48.690;12.362;2023-05-19T13:08:09;5.57;;;3.70;;
6671;SDS011;3372;48.690;12.362;2023-05-19T13:10:36;8.70;;;4.00;;
6671;SDS011;3372;48.690;12.362;2023-05-19T13:13:02;5.30;;;3.90;;
6671;SDS011;3372;48.690;12.362;2023-05-19T13:15:29;5.03;;;3.90;;
6671;SDS011;3372;48.690;12.362;2023-05-19T13:17:58;8.23;;;4.03;;
6671;SDS011;3372;48.690;12.362;2023-05-19T13:20:25;6.03;;;3.90;;
6671;SDS011;3372;48.690;12.362;2023-05-19T13:22:50;5.70;;;4.20;;
6671;SDS011;3372;48.690;12.362;2023-05-19T13:25:16;4.30;;;3.70;;
6671;SDS011;3372;48.690;12.362;2023-05-19T13:27:45;5.40;;;4.30;;
6671;SDS011;3372;48.690;12.362;2023-05-19T13:30:11;5.03;;;4.10;;
6671;SDS011;3372;48.690;12.362;2023-05-19T13:32:37;5.13;;;4.10;;
6671;SDS011;3372;48.690;12.362;2023-05-19T13:35:03;5.80;;;4.10;;
6671;SDS011;3372;48.690;12.362;2023-05-19T13:37:29;6.33;;;4.20;;
6671;SDS011;3372;48.690;12.362;2023-05-19T13:39:54;6.07;;;4.10;;
6671;SDS011;3372;48.690;12.362;2023-05-19T13:42:21;5.80;;;4.30;;
6671;SDS011;3372;48.690;12.362;2023-05-19T13:44:47;6.03;;;4.30;;
6671;SDS011;3372;48.690;12.362;2023-05-19T13:47:12;5.50;;;3.77;;
6671;SDS011;3372;48.690;12.362;2023-05-19T13:49:38;7.27;;;4.50;;
6671;SDS011;3372;48.690;12.362;2023-05-19T13:52:05;5.63;;;4.30;;
6671;SDS011;3372;48.690;12.362;2023-05-19T13:54:31;6.37;;;3.93;;
6671;SDS011;3372;48.690;12.362;2023-05-19T13:56:57;5.60;;;3.80;;
6671;SDS011;3372;48.690;12.362;2023-05-19T13:59:26;6.10;;;4.20;;
6671;SDS011;3372;48.690;12.362;2023-05-19T14:01:52;4.90;;;4.00;;
6671;SDS011;3372;48.690;12.362;2023-05-19T14:04:17;4.73;;;3.53;;
6671;SDS011;3372;48.690;12.362;2023-05-19T14:06:44;3.87;;;3.47;;
6671;SDS011;3372;48.690;12.362;2023-05-19T14:09:10;5.10;;;4.10;;
6671;SDS011;3372;48.690;12.362;2023-05-19T14:11:36;4.53;;;4.03;;
6671;SDS011;3372;48.690;12.362;2023-05-19T14:14:02;5.07;;;4.40;;
6671;SDS011;3372;48.690;12.362;2023-05-19T14:16:28;4.67;;;3.87;;
6671;SDS011;3372;48.690;12.362;2023-05-19T14:18:54;5.20;;;4.23;;
6671;SDS011;3372;48.690;12.362;2023-05-19T14:21:20;7.40;;;4.50;;
6671;SDS011;3372;48.690;12.362;2023-05-19T14:23:45;8.37;;;4.20;;
6671;SDS011;3372;48.690;12.362;2023-05-19T14:26:11;5.00;;;3.97;;
6671;SDS011;3372;48.690;12.362;2023-05-19T14:28:36;6.20;;;4.87;;
6671;SDS011;3372;48.690;12.362;2023-05-19T14:31:02;4.63;;;4.10;;
6671;SDS011;3372;48.690;12.362;2023-05-19T14:33:27;4.83;;;4.13;;
6671;SDS011;3372;48.690;12.362;2023-05-19T14:35:53;5.47;;;4.10;;
6671;SDS011;3372;48.690;12.362;2023-05-19T14:38:19;5.50;;;4.00;;
6671;SDS011;3372;48.690;12.362;2023-05-19T14:40:45;5.43;;;4.03;;
6671;SDS011;3372;48.690;12.362;2023-05-19T14:43:12;5.20;;;4.03;;
6671;SDS011;3372;48.690;12.362;2023-05-19T14:45:38;6.47;;;4.30;;
6671;SDS011;3372;48.690;12.362;2023-05-19T14:48:05;4.70;;;3.90;;
6671;SDS011;3372;48.690;12.362;2023-05-19T14:50:31;6.70;;;3.80;;
6671;SDS011;3372;48.690;12.362;2023-05-19T14:52:57;6.60;;;4.60;;
6671;SDS011;3372;48.690;12.362;2023-05-19T14:55:22;5.60;;;4.20;;
6671;SDS011;3372;48.690;12.362;2023-05-19T14:57:48;4.70;;;3.90;;
6671;SDS011;3372;48.690;12.362;2023-05-19T15:00:14;5.50;;;4.00;;
6671;SDS011;3372;48.690;12.362;2023-05-19T15:02:40;5.63;;;3.83;;
6671;SDS011;3372;48.690;12.362;2023-05-19T15:05:06;4.53;;;4.10;;
6671;SDS011;3372;48.690;12.362;2023-05-19T15:07:32;6.53;;;4.50;;
6671;SDS011;3372;48.690;12.362;2023-05-19T15:09:57;5.33;;;4.10;;
6671;SDS011;3372;48.690;12.362;2023-05-19T15:12:23;5.20;;;4.20;;
6671;SDS011;3372;48.690;12.362;2023-05-19T15:14:48;7.40;;;4.27;;
6671;SDS011;3372;48.690;12.362;2023-05-19T15:17:14;4.70;;;4.03;;
6671;SDS011;3372;48.690;12.362;2023-05-19T15:19:40;4.83;;;4.23;;
6671;SDS011;3372;48.690;12.362;2023-05-19T15:22:06;4.80;;;4.00;;
6671;SDS011;3372;48.690;12.362;2023-05-19T15:24:32;5.10;;;4.50;;
6671;SDS011;3372;48.690;12.362;2023-05-19T15:26:58;6.40;;;4.00;;
6671;SDS011;3372;48.690;12.362;2023-05-19T15:29:24;6.27;;;4.17;;
6671;SDS011;3372;48.690;12.362;2023-05-19T15:31:50;6.50;;;4.60;;
6671;SDS011;3372;48.690;12.362;2023-05-19T15:34:16;5.73;;;4.43;;
6671;SDS011;3372;48.690;12.362;2023-05-19T15:36:42;4.77;;;3.70;;
6671;SDS011;3372;48.690;12.362;2023-05-19T15:39:08;5.17;;;4.30;;
6671;SDS011;3372;48.690;12.362;2023-05-19T15:41:33;4.73;;;4.23;;